sensor_id;sensor_type;location;lat;lon;timestamp;pressure;altitude;pressure_sealevel;temperature;humidity
41264;BME280;26998;48.714;9.414;2023-07-29T00:01:04;98463.19;;;15.89;100.00
41264;BME280;26998;48.714;9.414;2023-07-29T00:03:31;98456.97;;;15.88;100.00
41264;BME280;26998;48.714;9.414;2023-07-29T00:05:57;98449.13;;;15.87;100.00
41264;BME280;26998;48.714;9.414;2023-07-29T00:08:24;98461.22;;;15.84;100.00
41264;BME280;26998;48.714;9.414;2023-07-29T00:10:50;98453.03;;;15.79;100.00
41264;BME280;26998;48.714;9.414;2023-07-29T00:13:17;98450.09;;;15.81;100.00
41264;BME280;26998;48.714;9.414;2023-07-29T00:15:47;98448.28;;;15.69;100.00
41264;BME280;26998;48.714;9.414;2023-07-29T00:18:13;98441.84;;;15.70;100.00
41264;BME280;26998;48.714;9.414;2023-07-29T00:20:40;98441.59;;;15.72;100.00
41264;BME280;26998;48.714;9.414;2023-07-29T00:23:06;98431.41;;;15.74;100.00
41264;BME280;26998;48.714;9.414;2023-07-29T00:25:33;98426.09;;;15.79;100.00
41264;BME280;26998;48.714;9.414;2023-07-29T00:27:59;98433.34;;;15.79;100.00
41264;BME280;26998;48.714;9.414;2023-07-29T00:30:26;98428.06;;;15.84;100.00
41264;BME280;26998;48.714;9.414;2023-07-29T00:32:52;98432.00;;;15.93;100.00
41264;BME280;26998;48.714;9.414;2023-07-29T00:35:19;98438.03;;;15.83;100.00
41264;BME280;26998;48.714;9.414;2023-07-29T00:37:45;98437.78;;;15.85;100.00
41264;BME280;26998;48.714;9.414;2023-07-29T00:40:19;98434.03;;;15.86;100.00
41264;BME280;26998;48.714;9.414;2023-07-29T00:42:46;98441.28;;;15.85;100.00
41264;BME280;26998;48.714;9.414;2023-07-29T00:45:12;98435.56;;;15.82;100.00
41264;BME280;26998;48.714;9.414;2023-07-29T00:47:39;98420.13;;;15.77;100.00
41264;BME280;26998;48.714;9.414;2023-07-29T00:50:06;98423.66;;;15.78;100.00
41264;BME280;26998;48.714;9.414;2023-07-29T00:52:33;98421.38;;;15.86;100.00
41264;BME280;26998;48.714;9.414;2023-07-29T00:55:00;98412.88;;;15.78;100.00
41264;BME280;26998;48.714;9.414;2023-07-29T00:57:27;98415.25;;;15.91;100.00
41264;BME280;26998;48.714;9.414;2023-07-29T00:59:55;98427.31;;;15.88;100.00
41264;BME280;26998;48.714;9.414;2023-07-29T01:02:22;98434.59;;;15.88;100.00
41264;BME280;26998;48.714;9.414;2023-07-29T01:04:58;98438.38;;;15.87;100.00
41264;BME280;26998;48.714;9.414;2023-07-29T01:07:48;98428.22;;;15.77;100.00
41264;BME280;26998;48.714;9.414;2023-07-29T01:10:52;98432.69;;;15.72;100.00
41264;BME280;26998;48.714;9.414;2023-07-29T01:13:19;98427.91;;;15.74;100.00
41264;BME280;26998;48.714;9.414;2023-07-29T01:15:55;98424.63;;;15.72;100.00
41264;BME280;26998;48.714;9.414;2023-07-29T01:18:29;98419.22;;;15.72;100.00
41264;BME280;26998;48.714;9.414;2023-07-29T01:21:00;98421.66;;;15.73;100.00
41264;BME280;26998;48.714;9.414;2023-07-29T01:23:30;98419.66;;;15.80;100.00
41264;BME280;26998;48.714;9.414;2023-07-29T01:25:57;98414.75;;;15.77;100.00
41264;BME280;26998;48.714;9.414;2023-07-29T01:28:24;98413.09;;;15.76;100.00
41264;BME280;26998;48.714;9.414;2023-07-29T01:33:58;98413.25;;;15.69;100.00
41264;BME280;26998;48.714;9.414;2023-07-29T01:36:28;98407.47;;;15.78;100.00
41264;BME280;26998;48.714;9.414;2023-07-29T01:38:55;98407.38;;;15.73;100.00
41264;BME280;26998;48.714;9.414;2023-07-29T01:41:24;98407.88;;;15.69;100.00
41264;BME280;26998;48.714;9.414;2023-07-29T01:43:52;98410.41;;;15.76;100.00
41264;BME280;26998;48.714;9.414;2023-07-29T01:46:19;98416.63;;;15.77;100.00
41264;BME280;26998;48.714;9.414;2023-07-29T01:48:46;98422.91;;;15.82;100.00
41264;BME280;26998;48.714;9.414;2023-07-29T01:51:12;98412.75;;;15.73;100.00
41264;BME280;26998;48.714;9.414;2023-07-29T01:53:39;98417.34;;;15.72;100.00
41264;BME280;26998;48.714;9.414;2023-07-29T01:56:05;98426.97;;;15.68;100.00
41264;BME280;26998;48.714;9.414;2023-07-29T01:58:32;98418.09;;;15.67;100.00
41264;BME280;26998;48.714;9.414;2023-07-29T02:00:58;98420.38;;;15.76;100.00
41264;BME280;26998;48.714;9.414;2023-07-29T02:03:25;98414.75;;;15.77;100.00
41264;BME280;26998;48.714;9.414;2023-07-29T02:05:51;98414.75;;;15.77;100.00
41264;BME280;26998;48.714;9.414;2023-07-29T02:08:18;98411.25;;;15.77;100.00
41264;BME280;26998;48.714;9.414;2023-07-29T02:10:44;98408.28;;;15.78;100.00
41264;BME280;26998;48.714;9.414;2023-07-29T02:13:11;98407.81;;;15.81;100.00
41264;BME280;26998;48.714;9.414;2023-07-29T02:15:38;98400.78;;;15.80;100.00
41264;BME280;26998;48.714;9.414;2023-07-29T02:18:04;98397.19;;;15.75;100.00
41264;BME280;26998;48.714;9.414;2023-07-29T02:20:31;98402.56;;;15.75;100.00
41264;BME280;26998;48.714;9.414;2023-07-29T02:22:57;98401.50;;;15.76;100.00
41264;BME280;26998;48.714;9.414;2023-07-29T02:25:24;98403.72;;;15.79;100.00
41264;BME280;26998;48.714;9.414;2023-07-29T02:27:50;98401.28;;;15.77;100.00
41264;BME280;26998;48.714;9.414;2023-07-29T02:30:17;98392.13;;;15.78;100.00
41264;BME280;26998;48.714;9.414;2023-07-29T02:32:44;98396.22;;;15.81;100.00
41264;BME280;26998;48.714;9.414;2023-07-29T02:35:11;98395.16;;;15.82;100.00
41264;BME280;26998;48.714;9.414;2023-07-29T02:37:38;98389.53;;;15.83;100.00
41264;BME280;26998;48.714;9.414;2023-07-29T02:40:05;98388.63;;;15.78;100.00
41264;BME280;26998;48.714;9.414;2023-07-29T02:42:31;98388.78;;;15.71;100.00
41264;BME280;26998;48.714;9.414;2023-07-29T02:44:58;98391.06;;;15.79;100.00
41264;BME280;26998;48.714;9.414;2023-07-29T02:47:24;98370.25;;;15.75;100.00
41264;BME280;26998;48.714;9.414;2023-07-29T02:49:51;98385.28;;;15.70;100.00
41264;BME280;26998;48.714;9.414;2023-07-29T02:52:17;98379.06;;;15.70;100.00
41264;BME280;26998;48.714;9.414;2023-07-29T02:54:44;98376.59;;;15.68;100.00
41264;BME280;26998;48.714;9.414;2023-07-29T02:57:11;98372.63;;;15.59;100.00
41264;BME280;26998;48.714;9.414;2023-07-29T02:59:40;98375.59;;;15.58;100.00
41264;BME280;26998;48.714;9.414;2023-07-29T03:02:07;98376.06;;;15.55;100.00
41264;BME280;26998;48.714;9.414;2023-07-29T03:04:33;98370.75;;;15.60;100.00
41264;BME280;26998;48.714;9.414;2023-07-29T03:06:59;98364.66;;;15.64;100.00
41264;BME280;26998;48.714;9.414;2023-07-29T03:09:26;98365.22;;;15.66;100.00
41264;BME280;26998;48.714;9.414;2023-07-29T03:11:52;98361.38;;;15.62;100.00
41264;BME280;26998;48.714;9.414;2023-07-29T03:14:19;98366.09;;;15.67;100.00
41264;BME280;26998;48.714;9.414;2023-07-29T03:16:45;98366.75;;;15.62;100.00
41264;BME280;26998;48.714;9.414;2023-07-29T03:19:12;98358.69;;;15.62;100.00
41264;BME280;26998;48.714;9.414;2023-07-29T03:21:41;98353.69;;;15.54;100.00
41264;BME280;26998;48.714;9.414;2023-07-29T03:24:08;98348.28;;;15.54;100.00
41264;BME280;26998;48.714;9.414;2023-07-29T03:26:34;98342.91;;;15.54;100.00
41264;BME280;26998;48.714;9.414;2023-07-29T03:29:01;98339.66;;;15.52;100.00
41264;BME280;26998;48.714;9.414;2023-07-29T03:31:30;98349.03;;;15.50;100.00
41264;BME280;26998;48.714;9.414;2023-07-29T03:33:57;98346.00;;;15.46;100.00
41264;BME280;26998;48.714;9.414;2023-07-29T03:36:24;98337.69;;;15.47;100.00
41264;BME280;26998;48.714;9.414;2023-07-29T03:38:50;98330.66;;;15.46;100.00
41264;BME280;26998;48.714;9.414;2023-07-29T03:41:18;98333.59;;;15.45;100.00
41264;BME280;26998;48.714;9.414;2023-07-29T03:43:44;98335.31;;;15.51;100.00
41264;BME280;26998;48.714;9.414;2023-07-29T03:46:11;98334.81;;;15.54;100.00
41264;BME280;26998;48.714;9.414;2023-07-29T03:48:38;98336.56;;;15.60;100.00
41264;BME280;26998;48.714;9.414;2023-07-29T03:51:04;98337.41;;;15.61;100.00
41264;BME280;26998;48.714;9.414;2023-07-29T03:53:31;98347.91;;;15.62;100.00
41264;BME280;26998;48.714;9.414;2023-07-29T03:55:57;98358.09;;;15.60;100.00
41264;BME280;26998;48.714;9.414;2023-07-29T03:58:24;98353.56;;;15.61;100.00
41264;BME280;26998;48.714;9.414;2023-07-29T04:00:50;98364.56;;;15.59;100.00
41264;BME280;26998;48.714;9.414;2023-07-29T04:03:17;98355.63;;;15.70;100.00
41264;BME280;26998;48.714;9.414;2023-07-29T04:05:43;98350.75;;;15.67;100.00
41264;BME280;26998;48.714;9.414;2023-07-29T04:08:10;98351.75;;;15.66;100.00
41264;BME280;26998;48.714;9.414;2023-07-29T04:10:37;98347.22;;;15.67;100.00
41264;BME280;26998;48.714;9.414;2023-07-29T04:13:03;98348.50;;;15.64;100.00
41264;BME280;26998;48.714;9.414;2023-07-29T04:15:30;98352.50;;;15.62;100.00
41264;BME280;26998;48.714;9.414;2023-07-29T04:17:56;98344.28;;;15.68;100.00
41264;BME280;26998;48.714;9.414;2023-07-29T04:20:23;98348.59;;;15.69;100.00
41264;BME280;26998;48.714;9.414;2023-07-29T04:22:49;98348.59;;;15.69;100.00
41264;BME280;26998;48.714;9.414;2023-07-29T04:25:16;98342.03;;;15.65;100.00
41264;BME280;26998;48.714;9.414;2023-07-29T04:27:42;98335.13;;;15.69;100.00
41264;BME280;26998;48.714;9.414;2023-07-29T04:30:09;98336.28;;;15.74;100.00
41264;BME280;26998;48.714;9.414;2023-07-29T04:32:36;98333.34;;;15.75;100.00
41264;BME280;26998;48.714;9.414;2023-07-29T04:35:03;98339.31;;;15.77;100.00
41264;BME280;26998;48.714;9.414;2023-07-29T04:37:29;98334.16;;;15.76;100.00
41264;BME280;26998;48.714;9.414;2023-07-29T04:39:56;98357.91;;;15.79;100.00
41264;BME280;26998;48.714;9.414;2023-07-29T04:42:22;98351.00;;;15.83;100.00
41264;BME280;26998;48.714;9.414;2023-07-29T04:44:49;98342.66;;;15.84;100.00
41264;BME280;26998;48.714;9.414;2023-07-29T04:47:15;98343.28;;;15.91;100.00
41264;BME280;26998;48.714;9.414;2023-07-29T04:49:42;98344.94;;;15.92;100.00
41264;BME280;26998;48.714;9.414;2023-07-29T04:52:08;98359.34;;;15.98;100.00
41264;BME280;26998;48.714;9.414;2023-07-29T04:54:35;98376.81;;;15.96;100.00
41264;BME280;26998;48.714;9.414;2023-07-29T04:57:01;98401.63;;;15.98;100.00
41264;BME280;26998;48.714;9.414;2023-07-29T04:59:28;98395.41;;;15.97;100.00
41264;BME280;26998;48.714;9.414;2023-07-29T05:01:54;98374.50;;;16.04;100.00
41264;BME280;26998;48.714;9.414;2023-07-29T05:04:21;98373.34;;;16.00;100.00
41264;BME280;26998;48.714;9.414;2023-07-29T05:06:48;98362.66;;;16.05;100.00
41264;BME280;26998;48.714;9.414;2023-07-29T05:09:15;98359.66;;;16.02;100.00
41264;BME280;26998;48.714;9.414;2023-07-29T05:11:42;98363.72;;;16.04;100.00
41264;BME280;26998;48.714;9.414;2023-07-29T05:14:08;98365.38;;;16.05;100.00
41264;BME280;26998;48.714;9.414;2023-07-29T05:16:35;98358.19;;;16.11;100.00
41264;BME280;26998;48.714;9.414;2023-07-29T05:19:01;98365.44;;;16.10;100.00
41264;BME280;26998;48.714;9.414;2023-07-29T05:21:28;98358.00;;;16.01;100.00
41264;BME280;26998;48.714;9.414;2023-07-29T05:23:54;98354.31;;;16.07;100.00
41264;BME280;26998;48.714;9.414;2023-07-29T05:26:22;98367.91;;;16.12;100.00
41264;BME280;26998;48.714;9.414;2023-07-29T05:28:48;98366.81;;;16.13;100.00
41264;BME280;26998;48.714;9.414;2023-07-29T05:31:15;98383.47;;;16.10;100.00
41264;BME280;26998;48.714;9.414;2023-07-29T05:33:41;98371.72;;;16.16;100.00
41264;BME280;26998;48.714;9.414;2023-07-29T05:36:08;98373.88;;;16.14;100.00
41264;BME280;26998;48.714;9.414;2023-07-29T05:38:34;98372.94;;;16.25;100.00
41264;BME280;26998;48.714;9.414;2023-07-29T05:41:01;98370.00;;;16.27;100.00
41264;BME280;26998;48.714;9.414;2023-07-29T05:43:27;98367.31;;;16.27;100.00
41264;BME280;26998;48.714;9.414;2023-07-29T05:45:54;98379.56;;;16.17;100.00
41264;BME280;26998;48.714;9.414;2023-07-29T05:48:21;98371.50;;;16.17;100.00
41264;BME280;26998;48.714;9.414;2023-07-29T05:50:47;98368.53;;;16.19;100.00
41264;BME280;26998;48.714;9.414;2023-07-29T05:53:14;98361.66;;;16.28;100.00
41264;BME280;26998;48.714;9.414;2023-07-29T05:55:41;98353.56;;;16.28;100.00
41264;BME280;26998;48.714;9.414;2023-07-29T05:58:07;98357.00;;;16.40;100.00
41264;BME280;26998;48.714;9.414;2023-07-29T06:00:34;98348.31;;;16.55;100.00
41264;BME280;26998;48.714;9.414;2023-07-29T06:03:00;98352.84;;;16.72;100.00
41264;BME280;26998;48.714;9.414;2023-07-29T06:05:27;98357.16;;;16.73;100.00
41264;BME280;26998;48.714;9.414;2023-07-29T06:07:54;98363.63;;;16.72;100.00
41264;BME280;26998;48.714;9.414;2023-07-29T06:10:21;98358.38;;;16.82;100.00
41264;BME280;26998;48.714;9.414;2023-07-29T06:12:47;98355.44;;;16.83;100.00
41264;BME280;26998;48.714;9.414;2023-07-29T06:15:14;98367.16;;;16.94;100.00
41264;BME280;26998;48.714;9.414;2023-07-29T06:17:40;98355.38;;;17.00;100.00
41264;BME280;26998;48.714;9.414;2023-07-29T06:20:07;98359.84;;;17.12;100.00
41264;BME280;26998;48.714;9.414;2023-07-29T06:22:34;98360.72;;;17.17;100.00
41264;BME280;26998;48.714;9.414;2023-07-29T06:25:01;98353.41;;;17.67;100.00
41264;BME280;26998;48.714;9.414;2023-07-29T06:27:27;98367.09;;;18.57;100.00
41264;BME280;26998;48.714;9.414;2023-07-29T06:29:54;98379.00;;;19.08;100.00
41264;BME280;26998;48.714;9.414;2023-07-29T06:32:20;98436.81;;;19.39;100.00
41264;BME280;26998;48.714;9.414;2023-07-29T06:34:47;98530.31;;;18.95;100.00
41264;BME280;26998;48.714;9.414;2023-07-29T06:37:13;98555.00;;;18.71;100.00
41264;BME280;26998;48.714;9.414;2023-07-29T06:39:40;98576.66;;;18.71;100.00
41264;BME280;26998;48.714;9.414;2023-07-29T06:42:06;98613.88;;;19.18;100.00
41264;BME280;26998;48.714;9.414;2023-07-29T06:44:33;98675.91;;;19.52;100.00
41264;BME280;26998;48.714;9.414;2023-07-29T06:46:59;98705.78;;;19.57;100.00
41264;BME280;26998;48.714;9.414;2023-07-29T06:49:26;98720.34;;;19.19;100.00
41264;BME280;26998;48.714;9.414;2023-07-29T06:51:52;98690.41;;;19.03;100.00
41264;BME280;26998;48.714;9.414;2023-07-29T06:54:19;98686.22;;;18.63;100.00
41264;BME280;26998;48.714;9.414;2023-07-29T06:56:45;98610.84;;;18.50;100.00
41264;BME280;26998;48.714;9.414;2023-07-29T06:59:12;98633.16;;;18.35;100.00
41264;BME280;26998;48.714;9.414;2023-07-29T07:01:38;98616.38;;;18.11;100.00
41264;BME280;26998;48.714;9.414;2023-07-29T07:04:05;98535.34;;;17.94;100.00
41264;BME280;26998;48.714;9.414;2023-07-29T07:06:31;98485.75;;;17.84;100.00
41264;BME280;26998;48.714;9.414;2023-07-29T07:08:58;98449.16;;;17.76;100.00
41264;BME280;26998;48.714;9.414;2023-07-29T07:11:25;98466.91;;;17.67;100.00
41264;BME280;26998;48.714;9.414;2023-07-29T07:13:51;98459.81;;;17.39;100.00
41264;BME280;26998;48.714;9.414;2023-07-29T07:16:18;98439.56;;;17.19;100.00
41264;BME280;26998;48.714;9.414;2023-07-29T07:18:44;98447.44;;;17.21;100.00
41264;BME280;26998;48.714;9.414;2023-07-29T07:21:11;98446.97;;;17.07;100.00
41264;BME280;26998;48.714;9.414;2023-07-29T07:23:38;98459.25;;;17.15;100.00
41264;BME280;26998;48.714;9.414;2023-07-29T07:26:05;98445.25;;;17.18;100.00
41264;BME280;26998;48.714;9.414;2023-07-29T07:28:31;98449.75;;;17.34;100.00
41264;BME280;26998;48.714;9.414;2023-07-29T07:30:58;98441.66;;;17.34;100.00
41264;BME280;26998;48.714;9.414;2023-07-29T07:33:24;98426.66;;;17.21;100.00
41264;BME280;26998;48.714;9.414;2023-07-29T07:35:54;98431.66;;;17.35;100.00
41264;BME280;26998;48.714;9.414;2023-07-29T07:38:20;98430.81;;;17.29;100.00
41264;BME280;26998;48.714;9.414;2023-07-29T07:40:54;98427.84;;;17.30;100.00
41264;BME280;26998;48.714;9.414;2023-07-29T07:43:21;98426.44;;;17.28;100.00
41264;BME280;26998;48.714;9.414;2023-07-29T07:45:48;98423.50;;;17.29;100.00
41264;BME280;26998;48.714;9.414;2023-07-29T07:48:15;98424.53;;;17.50;100.00
41264;BME280;26998;48.714;9.414;2023-07-29T07:50:41;98428.50;;;17.65;100.00
41264;BME280;26998;48.714;9.414;2023-07-29T07:53:07;98431.75;;;17.89;100.00
41264;BME280;26998;48.714;9.414;2023-07-29T07:55:34;98436.50;;;17.82;100.00
41264;BME280;26998;48.714;9.414;2023-07-29T07:58:01;98425.81;;;17.92;100.00
41264;BME280;26998;48.714;9.414;2023-07-29T08:00:27;98438.22;;;17.66;100.00
41264;BME280;26998;48.714;9.414;2023-07-29T08:02:55;98452.38;;;17.73;100.00
41264;BME280;26998;48.714;9.414;2023-07-29T08:05:21;98445.00;;;17.68;100.00
41264;BME280;26998;48.714;9.414;2023-07-29T08:07:48;98440.38;;;17.86;100.00
41264;BME280;26998;48.714;9.414;2023-07-29T08:10:14;98447.16;;;17.88;100.00
41264;BME280;26998;48.714;9.414;2023-07-29T08:12:41;98453.56;;;17.82;100.00
41264;BME280;26998;48.714;9.414;2023-07-29T08:15:08;98452.34;;;17.95;100.00
41264;BME280;26998;48.714;9.414;2023-07-29T08:17:34;98470.47;;;18.27;100.00
41264;BME280;26998;48.714;9.414;2023-07-29T08:20:01;98501.25;;;18.53;100.00
41264;BME280;26998;48.714;9.414;2023-07-29T08:22:27;98508.19;;;18.70;100.00
41264;BME280;26998;48.714;9.414;2023-07-29T08:24:54;98525.91;;;18.83;100.00
41264;BME280;26998;48.714;9.414;2023-07-29T08:27:20;98560.56;;;18.86;100.00
41264;BME280;26998;48.714;9.414;2023-07-29T08:29:46;98588.28;;;18.99;100.00
41264;BME280;26998;48.714;9.414;2023-07-29T08:32:13;98620.31;;;19.07;100.00
41264;BME280;26998;48.714;9.414;2023-07-29T08:34:39;98633.72;;;19.24;100.00
41264;BME280;26998;48.714;9.414;2023-07-29T08:37:06;98642.72;;;19.34;100.00
41264;BME280;26998;48.714;9.414;2023-07-29T08:39:32;98643.63;;;19.45;100.00
41264;BME280;26998;48.714;9.414;2023-07-29T08:42:07;98706.59;;;19.95;100.00
41264;BME280;26998;48.714;9.414;2023-07-29T08:44:42;98708.78;;;19.60;100.00
41264;BME280;26998;48.714;9.414;2023-07-29T08:47:09;98704.19;;;19.61;100.00
41264;BME280;26998;48.714;9.414;2023-07-29T08:49:37;98677.53;;;19.53;100.00
41264;BME280;26998;48.714;9.414;2023-07-29T08:52:05;98765.47;;;19.99;100.00
41264;BME280;26998;48.714;9.414;2023-07-29T08:54:33;98809.25;;;20.18;100.00
41264;BME280;26998;48.714;9.414;2023-07-29T08:57:00;98833.94;;;20.54;100.00
41264;BME280;26998;48.714;9.414;2023-07-29T08:59:28;98825.81;;;20.54;100.00
41264;BME280;26998;48.714;9.414;2023-07-29T09:01:56;98816.69;;;20.33;100.00
41264;BME280;26998;48.714;9.414;2023-07-29T09:04:22;98831.81;;;20.61;100.00
41264;BME280;26998;48.714;9.414;2023-07-29T09:06:50;98832.13;;;20.70;100.00
41264;BME280;26998;48.714;9.414;2023-07-29T09:09:17;98807.44;;;20.76;100.00
41264;BME280;26998;48.714;9.414;2023-07-29T09:11:44;98830.91;;;21.03;100.00
41264;BME280;26998;48.714;9.414;2023-07-29T09:14:10;98853.66;;;20.92;100.00
41264;BME280;26998;48.714;9.414;2023-07-29T09:16:37;98840.94;;;21.08;100.00
41264;BME280;26998;48.714;9.414;2023-07-29T09:19:04;98828.88;;;21.87;100.00
41264;BME280;26998;48.714;9.414;2023-07-29T09:21:31;98873.22;;;22.08;100.00
41264;BME280;26998;48.714;9.414;2023-07-29T09:24:02;98876.75;;;22.03;100.00
41264;BME280;26998;48.714;9.414;2023-07-29T09:26:29;98872.41;;;21.82;100.00
41264;BME280;26998;48.714;9.414;2023-07-29T09:28:57;98874.56;;;21.70;100.00
41264;BME280;26998;48.714;9.414;2023-07-29T09:31:26;98875.41;;;22.26;100.00
41264;BME280;26998;48.714;9.414;2023-07-29T09:34:00;98875.66;;;22.14;100.00
41264;BME280;26998;48.714;9.414;2023-07-29T09:36:27;98878.69;;;22.03;100.00
41264;BME280;26998;48.714;9.414;2023-07-29T09:38:57;98898.50;;;22.54;100.00
41264;BME280;26998;48.714;9.414;2023-07-29T09:41:28;98893.34;;;22.43;100.00
41264;BME280;26998;48.714;9.414;2023-07-29T09:43:56;98892.84;;;22.25;100.00
41264;BME280;26998;48.714;9.414;2023-07-29T09:46:24;98875.38;;;21.96;100.00
41264;BME280;26998;48.714;9.414;2023-07-29T09:48:53;98883.84;;;22.20;100.00
41264;BME280;26998;48.714;9.414;2023-07-29T09:51:20;98902.03;;;22.55;100.00
41264;BME280;26998;48.714;9.414;2023-07-29T09:53:47;98902.88;;;22.55;100.00
41264;BME280;26998;48.714;9.414;2023-07-29T09:56:14;98900.44;;;22.54;100.00
41264;BME280;26998;48.714;9.414;2023-07-29T09:58:46;98898.53;;;23.40;100.00
41264;BME280;26998;48.714;9.414;2023-07-29T10:01:14;98907.66;;;24.04;100.00
41264;BME280;26998;48.714;9.414;2023-07-29T10:03:41;98868.88;;;23.72;100.00
41264;BME280;26998;48.714;9.414;2023-07-29T10:06:08;98887.47;;;23.11;100.00
41264;BME280;26998;48.714;9.414;2023-07-29T10:08:35;98868.19;;;22.97;100.00
41264;BME280;26998;48.714;9.414;2023-07-29T10:11:02;98885.94;;;22.74;100.00
41264;BME280;26998;48.714;9.414;2023-07-29T10:13:28;98854.63;;;22.71;100.00
41264;BME280;26998;48.714;9.414;2023-07-29T10:15:55;98847.19;;;22.92;100.00
41264;BME280;26998;48.714;9.414;2023-07-29T10:18:22;98860.91;;;22.67;100.00
41264;BME280;26998;48.714;9.414;2023-07-29T10:20:51;98875.00;;;22.99;100.00
41264;BME280;26998;48.714;9.414;2023-07-29T10:23:18;98842.47;;;23.58;100.00
41264;BME280;26998;48.714;9.414;2023-07-29T10:25:58;98832.44;;;23.53;100.00
41264;BME280;26998;48.714;9.414;2023-07-29T10:28:27;98822.78;;;23.66;100.00
41264;BME280;26998;48.714;9.414;2023-07-29T10:30:56;98785.50;;;23.56;100.00
41264;BME280;26998;48.714;9.414;2023-07-29T10:33:24;98805.88;;;23.64;100.00
41264;BME280;26998;48.714;9.414;2023-07-29T10:35:52;98816.91;;;23.88;100.00
41264;BME280;26998;48.714;9.414;2023-07-29T10:38:21;98763.13;;;23.88;100.00
41264;BME280;26998;48.714;9.414;2023-07-29T10:40:56;98746.97;;;24.21;100.00
41264;BME280;26998;48.714;9.414;2023-07-29T10:43:34;98768.84;;;24.45;100.00
41264;BME280;26998;48.714;9.414;2023-07-29T10:48:44;98688.00;;;24.44;100.00
41264;BME280;26998;48.714;9.414;2023-07-29T10:54:13;98675.09;;;24.50;100.00
41264;BME280;26998;48.714;9.414;2023-07-29T10:56:47;98678.47;;;24.17;100.00
41264;BME280;26998;48.714;9.414;2023-07-29T11:01:41;98682.59;;;24.15;100.00
41264;BME280;26998;48.714;9.414;2023-07-29T11:12:39;98360.88;;;24.36;100.00
41264;BME280;26998;48.714;9.414;2023-07-29T11:17:38;98422.88;;;24.35;100.00
41264;BME280;26998;48.714;9.414;2023-07-29T11:20:06;98339.41;;;24.62;100.00
41264;BME280;26998;48.714;9.414;2023-07-29T11:22:33;98326.53;;;24.76;100.00
41264;BME280;26998;48.714;9.414;2023-07-29T11:25:00;98335.38;;;24.87;100.00
41264;BME280;26998;48.714;9.414;2023-07-29T11:27:27;98300.06;;;25.41;100.00
41264;BME280;26998;48.714;9.414;2023-07-29T11:29:58;98295.38;;;24.91;100.00
41264;BME280;26998;48.714;9.414;2023-07-29T11:32:27;98320.28;;;24.76;100.00
41264;BME280;26998;48.714;9.414;2023-07-29T11:34:53;98308.09;;;25.09;100.00
41264;BME280;26998;48.714;9.414;2023-07-29T11:37:20;98318.94;;;25.01;100.00
41264;BME280;26998;48.714;9.414;2023-07-29T11:39:47;98309.44;;;24.57;100.00
41264;BME280;26998;48.714;9.414;2023-07-29T11:42:14;98363.06;;;24.66;100.00
41264;BME280;26998;48.714;9.414;2023-07-29T11:44:41;98342.53;;;24.69;100.00
41264;BME280;26998;48.714;9.414;2023-07-29T11:47:09;98329.88;;;24.73;100.00
41264;BME280;26998;48.714;9.414;2023-07-29T11:49:37;98316.63;;;24.66;100.00
41264;BME280;26998;48.714;9.414;2023-07-29T11:52:09;98331.50;;;24.47;100.00
41264;BME280;26998;48.714;9.414;2023-07-29T11:54:36;98356.44;;;24.86;100.00
41264;BME280;26998;48.714;9.414;2023-07-29T11:57:07;98328.78;;;25.02;100.00
41264;BME280;26998;48.714;9.414;2023-07-29T11:59:37;98298.72;;;25.02;100.00
41264;BME280;26998;48.714;9.414;2023-07-29T12:02:07;98335.56;;;24.91;100.00
41264;BME280;26998;48.714;9.414;2023-07-29T12:04:34;98329.25;;;25.04;100.00
41264;BME280;26998;48.714;9.414;2023-07-29T12:07:02;98285.78;;;24.66;100.00
41264;BME280;26998;48.714;9.414;2023-07-29T12:09:29;98285.56;;;24.76;100.00
41264;BME280;26998;48.714;9.414;2023-07-29T12:11:56;98325.03;;;24.98;100.00
41264;BME280;26998;48.714;9.414;2023-07-29T12:14:28;98301.28;;;25.34;100.00
41264;BME280;26998;48.714;9.414;2023-07-29T12:16:55;98281.63;;;25.32;100.00
41264;BME280;26998;48.714;9.414;2023-07-29T12:19:22;98260.41;;;25.52;100.00
41264;BME280;26998;48.714;9.414;2023-07-29T12:21:48;98271.88;;;25.18;100.00
41264;BME280;26998;48.714;9.414;2023-07-29T12:24:15;98300.25;;;25.67;100.00
41264;BME280;26998;48.714;9.414;2023-07-29T12:26:41;98196.25;;;25.67;100.00
41264;BME280;26998;48.714;9.414;2023-07-29T12:29:16;98179.41;;;25.96;97.27
41264;BME280;26998;48.714;9.414;2023-07-29T12:31:43;98189.75;;;26.08;100.00
41264;BME280;26998;48.714;9.414;2023-07-29T12:34:09;98181.41;;;26.21;98.76
41264;BME280;26998;48.714;9.414;2023-07-29T12:36:43;98171.44;;;26.25;93.84
41264;BME280;26998;48.714;9.414;2023-07-29T12:39:21;98171.59;;;26.29;86.99
41264;BME280;26998;48.714;9.414;2023-07-29T12:41:49;98155.06;;;26.43;85.58
41264;BME280;26998;48.714;9.414;2023-07-29T12:44:16;98160.00;;;26.23;82.38
41264;BME280;26998;48.714;9.414;2023-07-29T12:46:43;98162.75;;;26.23;82.36
41264;BME280;26998;48.714;9.414;2023-07-29T12:49:10;98177.53;;;26.62;83.19
41264;BME280;26998;48.714;9.414;2023-07-29T12:51:36;98180.28;;;26.80;84.37
41264;BME280;26998;48.714;9.414;2023-07-29T12:54:04;98183.59;;;26.42;79.65
41264;BME280;26998;48.714;9.414;2023-07-29T12:56:32;98163.97;;;26.66;89.82
41264;BME280;26998;48.714;9.414;2023-07-29T12:59:00;98180.25;;;26.62;87.09
41264;BME280;26998;48.714;9.414;2023-07-29T13:01:28;98185.75;;;26.71;85.40
41264;BME280;26998;48.714;9.414;2023-07-29T13:03:54;98175.84;;;26.44;90.38
41264;BME280;26998;48.714;9.414;2023-07-29T13:06:22;98175.16;;;26.38;92.33
41264;BME280;26998;48.714;9.414;2023-07-29T13:08:48;98177.66;;;26.57;88.46
41264;BME280;26998;48.714;9.414;2023-07-29T13:11:16;98177.25;;;26.24;88.53
41264;BME280;26998;48.714;9.414;2023-07-29T13:13:44;98175.94;;;25.82;88.78